Time,TemperatureF,DewpointF,PressureIn,WindDirection,WindDirectionDegrees,WindSpeedMPH,WindSpeedGustMPH,Humidity,HourlyPrecipIn,Conditions,Clouds,dailyrainin,SoftwareType,DateUTC
2013-02-17 16:08:00,58.3,26.2,30.30,NE,50,3.0,3.0,29,0.00,,---,0.00,VWS V14.01,2013-02-17 21:08:00,
2013-02-17 16:13:00,58.9,26.7,30.30,NNW,346,3.0,3.0,29,0.00,,---,0.00,VWS V14.01,2013-02-17 21:13:00,
2013-02-17 16:18:00,58.5,25.5,30.30,North,4,2.0,4.0,28,0.00,,---,0.00,VWS V14.01,2013-02-17 21:18:00,
2013-02-17 16:23:00,58.3,26.2,30.30,NNE,18,4.0,5.0,29,0.00,,---,0.00,VWS V14.01,2013-02-17 21:23:00,
2013-02-17 16:28:00,58.6,27.3,30.30,NNE,30,4.0,6.0,30,0.00,,---,0.00,VWS V14.01,2013-02-17 21:28:00,
2013-02-17 16:33:00,58.0,26.0,30.30,NE,50,7.0,7.0,29,0.00,,---,0.00,VWS V14.01,2013-02-17 21:33:00,
2013-02-17 16:38:00,58.1,26.9,30.30,NE,54,8.0,9.0,30,0.00,,---,0.00,VWS V14.01,2013-02-17 21:38:00,
2013-02-17 16:43:00,58.4,26.3,30.30,WSW,245,2.0,5.0,29,0.00,,---,0.00,VWS V14.01,2013-02-17 21:43:00,
2013-02-17 16:48:00,58.5,25.5,30.30,NNW,329,5.0,6.0,28,0.00,,---,0.00,VWS V14.01,2013-02-17 21:48:00,
2013-02-17 16:53:00,58.5,25.5,30.30,WNW,292,1.0,3.0,28,0.00,,---,0.00,VWS V14.01,2013-02-17 21:53:00,
2013-02-17 16:58:00,58.8,25.8,30.30,WNW,288,1.0,4.0,28,0.00,,---,0.00,VWS V14.01,2013-02-17 21:58:00,
2013-02-17 17:03:00,59.1,26.0,30.30,SSE,149,3.0,6.0,28,0.00,,---,0.00,VWS V14.01,2013-02-17 22:03:00,
2013-02-17 17:08:00,58.5,26.4,30.30,NNE,20,4.0,4.0,29,0.00,,---,0.00,VWS V14.01,2013-02-17 22:08:00,
2013-02-17 17:13:00,58.1,25.2,30.31,NNE,19,4.0,6.0,28,0.00,,---,0.00,VWS V14.01,2013-02-17 22:13:00,
2013-02-17 17:18:00,57.7,24.8,30.30,NNE,32,0.0,2.0,28,0.00,,---,0.00,VWS V14.01,2013-02-17 22:18:00,
2013-02-17 17:23:00,57.7,25.7,30.30,NW,321,1.0,2.0,29,0.00,,---,0.00,VWS V14.01,2013-02-17 22:23:00,
2013-02-17 17:28:00,57.8,26.6,30.30,NNW,327,2.0,2.0,30,0.00,,---,0.00,VWS V14.01,2013-02-17 22:28:00,
2013-02-17 17:33:00,57.8,25.8,30.31,NW,306,0.0,0.0,29,0.00,,---,0.00,VWS V14.01,2013-02-17 22:33:00,
2013-02-17 17:38:00,57.7,26.5,30.31,NW,313,1.0,3.0,30,0.00,,---,0.00,VWS V14.01,2013-02-17 22:38:00,
2013-02-17 17:43:00,57.0,26.7,30.31,NW,318,2.0,3.0,31,0.00,,---,0.00,VWS V14.01,2013-02-17 22:43:00,
2013-02-17 17:48:00,56.1,25.1,30.31,WNW,287,1.0,2.0,30,0.00,,---,0.00,VWS V14.01,2013-02-17 22:48:00,
2013-02-17 17:53:00,55.5,25.4,30.31,WNW,292,0.0,0.0,31,0.00,,---,0.00,VWS V14.01,2013-02-17 22:53:00,
2013-02-17 17:58:00,55.1,25.0,30.31,NE,42,0.0,1.0,31,0.00,,---,0.00,VWS V14.01,2013-02-17 22:58:00,
2013-02-17 18:03:00,54.6,26.1,30.31,East,79,0.0,0.0,33,0.00,,---,0.00,VWS V14.01,2013-02-17 23:03:00,
2013-02-17 18:08:00,54.2,25.7,30.31,East,79,0.0,0.0,33,0.00,,---,0.00,VWS V14.01,2013-02-17 23:08:00,
2013-02-17 18:13:00,53.6,25.9,30.31,NNW,346,0.0,0.0,34,0.00,,---,0.00,VWS V14.01,2013-02-17 23:13:00,
2013-02-17 18:18:00,52.9,27.4,30.31,NNW,346,0.0,0.0,37,0.00,,---,0.00,VWS V14.01,2013-02-17 23:18:00,
2013-02-17 18:23:00,52.2,27.4,30.31,NNW,346,0.0,0.0,38,0.00,,---,0.00,VWS V14.01,2013-02-17 23:23:00,
2013-02-17 18:28:00,51.5,29.2,30.31,NNW,346,0.0,0.0,42,0.00,,---,0.00,VWS V14.01,2013-02-17 23:28:00,
2013-02-17 18:33:00,50.6,29.0,30.31,NNW,346,0.0,0.0,43,0.00,,---,0.00,VWS V14.01,2013-02-17 23:33:00,
2013-02-17 18:38:00,49.5,29.1,30.31,NNW,346,0.0,0.0,45,0.00,,---,0.00,VWS V14.01,2013-02-17 23:38:00,
2013-02-17 18:43:00,48.5,29.2,30.32,NNW,346,0.0,0.0,47,0.00,,---,0.00,VWS V14.01,2013-02-17 23:43:00,
2013-02-17 18:48:00,47.5,29.8,30.32,NNW,345,0.0,0.0,50,0.00,,---,0.00,VWS V14.01,2013-02-17 23:48:00,
2013-02-17 18:53:00,46.8,30.1,30.32,NNW,346,0.0,0.0,52,0.00,,---,0.00,VWS V14.01,2013-02-17 23:53:00,
2013-02-17 18:58:00,46.4,30.2,30.32,NNW,346,0.0,0.0,53,0.00,,---,0.00,VWS V14.01,2013-02-17 23:58:00,
2013-02-17 19:03:00,46.0,30.8,30.32,NNW,346,0.0,0.0,55,0.00,,---,0.00,VWS V14.01,2013-02-18 00:03:00,
2013-02-17 19:08:00,45.5,31.2,30.32,NNW,345,0.0,0.0,57,0.00,,---,0.00,VWS V14.01,2013-02-18 00:08:00,
2013-02-17 19:13:00,45.1,31.6,30.32,NNW,346,0.0,0.0,59,0.00,,---,0.00,VWS V14.01,2013-02-18 00:13:00,
2013-02-17 19:18:00,44.6,31.6,30.32,NNW,346,0.0,0.0,60,0.00,,---,0.00,VWS V14.01,2013-02-18 00:18:00,
2013-02-17 19:23:00,44.3,31.7,30.33,NNW,346,0.0,0.0,61,0.00,,---,0.00,VWS V14.01,2013-02-18 00:23:00,
2013-02-17 19:28:00,44.1,32.3,30.33,NNW,346,0.0,0.0,63,0.00,,---,0.00,VWS V14.01,2013-02-18 00:28:00,
2013-02-17 19:33:00,44.0,32.6,30.33,NNW,346,0.0,0.0,64,0.00,,---,0.00,VWS V14.01,2013-02-18 00:33:00,
2013-02-17 19:38:00,43.9,32.5,30.33,NNW,346,0.0,0.0,64,0.00,,---,0.00,VWS V14.01,2013-02-18 00:38:00,
2013-02-17 19:43:00,43.6,32.6,30.33,NNW,346,0.0,0.0,65,0.00,,---,0.00,VWS V14.01,2013-02-18 00:43:00,
2013-02-17 19:48:00,43.6,33.0,30.33,NNW,346,0.0,0.0,66,0.00,,---,0.00,VWS V14.01,2013-02-18 00:48:00,
2013-02-17 19:53:00,43.3,32.7,30.33,NNW,346,0.0,0.0,66,0.00,,---,0.00,VWS V14.01,2013-02-18 00:53:00,
2013-02-17 19:58:00,43.1,33.3,30.33,NNW,346,0.0,0.0,68,0.00,,---,0.00,VWS V14.01,2013-02-18 00:58:00,
2013-02-17 20:03:00,43.2,33.7,30.33,NNW,346,0.0,0.0,69,0.00,,---,0.00,VWS V14.01,2013-02-18 01:03:00,
2013-02-17 20:08:00,42.9,33.4,30.34,NNW,346,0.0,0.0,69,0.00,,---,0.00,VWS V14.01,2013-02-18 01:08:00,
2013-02-17 20:13:00,42.6,33.2,30.34,NNW,346,0.0,0.0,69,0.00,,---,0.00,VWS V14.01,2013-02-18 01:13:00,
2013-02-17 20:18:00,42.5,33.4,30.34,NNW,346,0.0,0.0,70,0.00,,---,0.00,VWS V14.01,2013-02-18 01:18:00,
2013-02-17 20:23:00,42.2,33.5,30.34,NNW,346,0.0,0.0,71,0.00,,---,0.00,VWS V14.01,2013-02-18 01:23:00,
2013-02-17 20:28:00,41.9,33.2,30.34,NNW,346,0.0,0.0,71,0.00,,---,0.00,VWS V14.01,2013-02-18 01:28:00,
2013-02-17 20:33:00,41.7,33.0,30.34,NNW,346,0.0,0.0,71,0.00,,---,0.00,VWS V14.01,2013-02-18 01:33:00,
2013-02-17 20:38:00,41.6,32.9,30.34,NNW,345,0.0,0.0,71,0.00,,---,0.00,VWS V14.01,2013-02-18 01:38:00,
2013-02-17 20:43:00,41.5,33.2,30.34,NNW,346,0.0,0.0,72,0.00,,---,0.00,VWS V14.01,2013-02-18 01:43:00,
2013-02-17 20:48:00,41.6,33.3,30.34,NNW,346,0.0,0.0,72,0.00,,---,0.00,VWS V14.01,2013-02-18 01:48:00,
2013-02-17 20:52:00,41.5,33.2,30.34,NNW,346,0.0,0.0,72,0.00,,---,0.00,VWS V14.01,2013-02-18 01:52:00,
2013-02-17 20:57:00,41.6,33.3,30.34,NNW,346,0.0,0.0,72,0.00,,---,0.00,VWS V14.01,2013-02-18 01:57:00,
2013-02-17 21:02:00,41.5,32.8,30.35,NNW,346,0.0,1.0,71,0.00,,---,0.00,VWS V14.01,2013-02-18 02:02:00,
2013-02-17 21:07:00,41.7,32.3,30.35,NNW,346,0.0,0.0,69,0.00,,---,0.00,VWS V14.01,2013-02-18 02:07:00,
2013-02-17 21:12:00,41.9,32.1,30.35,NNW,348,0.0,0.0,68,0.00,,---,0.00,VWS V14.01,2013-02-18 02:12:00,
2013-02-17 21:17:00,42.2,30.5,30.35,North,349,0.0,0.0,63,0.00,,---,0.00,VWS V14.01,2013-02-18 02:17:00,
2013-02-17 21:22:00,42.7,31.4,30.35,NNW,348,0.0,0.0,64,0.00,,---,0.00,VWS V14.01,2013-02-18 02:22:00,
2013-02-17 21:27:00,42.3,31.8,30.35,NNW,347,0.0,0.0,66,0.00,,---,0.00,VWS V14.01,2013-02-18 02:27:00,
2013-02-17 21:32:00,42.0,31.1,30.36,NNW,347,0.0,0.0,65,0.00,,---,0.00,VWS V14.01,2013-02-18 02:32:00,
2013-02-17 21:37:00,42.3,31.8,30.36,NNW,348,0.0,1.0,66,0.00,,---,0.00,VWS V14.01,2013-02-18 02:37:00,
2013-02-17 21:42:00,42.7,31.4,30.36,NNE,25,0.0,0.0,64,0.00,,---,0.00,VWS V14.01,2013-02-18 02:42:00,
2013-02-17 21:47:00,43.2,31.5,30.36,NE,56,0.0,0.0,63,0.00,,---,0.00,VWS V14.01,2013-02-18 02:47:00,
2013-02-17 21:52:00,43.4,31.3,30.36,NE,51,0.0,0.0,62,0.00,,---,0.00,VWS V14.01,2013-02-18 02:52:00,
2013-02-17 21:57:00,43.8,30.8,30.36,NE,51,0.0,1.0,60,0.00,,---,0.00,VWS V14.01,2013-02-18 02:57:00,
2013-02-17 22:02:00,44.5,30.2,30.36,NE,40,2.0,3.0,57,0.00,,---,0.00,VWS V14.01,2013-02-18 03:02:00,
2013-02-17 22:07:00,45.1,29.9,30.36,East,79,2.0,2.0,55,0.00,,---,0.00,VWS V14.01,2013-02-18 03:07:00,
2013-02-17 22:12:00,45.5,29.4,30.36,North,8,1.0,1.0,53,0.00,,---,0.00,VWS V14.01,2013-02-18 03:12:00,
2013-02-17 22:17:00,45.6,29.9,30.37,NNE,20,2.0,3.0,54,0.00,,---,0.00,VWS V14.01,2013-02-18 03:17:00,
2013-02-17 22:22:00,45.5,29.4,30.37,NNE,32,1.0,1.0,53,0.00,,---,0.00,VWS V14.01,2013-02-18 03:22:00,
2013-02-17 22:27:00,45.4,29.7,30.37,NE,40,1.0,1.0,54,0.00,,---,0.00,VWS V14.01,2013-02-18 03:27:00,
2013-02-17 22:32:00,45.3,29.2,30.37,ENE,62,3.0,3.0,53,0.00,,---,0.00,VWS V14.01,2013-02-18 03:32:00,
2013-02-17 22:37:00,45.2,29.6,30.37,NE,48,0.0,0.0,54,0.00,,---,0.00,VWS V14.01,2013-02-18 03:37:00,
2013-02-17 22:42:00,44.8,29.2,30.37,NE,46,0.0,0.0,54,0.00,,---,0.00,VWS V14.01,2013-02-18 03:42:00,
2013-02-17 22:47:00,44.6,29.0,30.37,NE,56,2.0,2.0,54,0.00,,---,0.00,VWS V14.01,2013-02-18 03:47:00,
2013-02-17 22:52:00,44.6,29.5,30.37,ENE,61,0.0,0.0,55,0.00,,---,0.00,VWS V14.01,2013-02-18 03:52:00,
2013-02-17 22:57:00,44.3,30.0,30.37,ENE,61,1.0,2.0,57,0.00,,---,0.00,VWS V14.01,2013-02-18 03:57:00,
2013-02-17 23:02:00,43.8,29.6,30.38,NE,46,0.0,0.0,57,0.00,,---,0.00,VWS V14.01,2013-02-18 04:02:00,
2013-02-17 23:07:00,43.4,29.6,30.38,NE,51,1.0,1.0,58,0.00,,---,0.00,VWS V14.01,2013-02-18 04:07:00,
2013-02-17 23:12:00,43.3,29.1,30.38,NE,54,0.0,0.0,57,0.00,,---,0.00,VWS V14.01,2013-02-18 04:12:00,
2013-02-17 23:17:00,43.2,29.0,30.37,NNE,32,3.0,3.0,57,0.00,,---,0.00,VWS V14.01,2013-02-18 04:17:00,
2013-02-17 23:22:00,43.2,29.0,30.38,NE,41,1.0,3.0,57,0.00,,---,0.00,VWS V14.01,2013-02-18 04:22:00,
2013-02-17 23:27:00,43.2,29.4,30.38,NE,40,0.0,1.0,58,0.00,,---,0.00,VWS V14.01,2013-02-18 04:27:00,
2013-02-17 23:32:00,43.1,29.3,30.38,ENE,72,2.0,2.0,58,0.00,,---,0.00,VWS V14.01,2013-02-18 04:32:00,
2013-02-17 23:37:00,43.1,29.3,30.38,SSE,158,0.0,0.0,58,0.00,,---,0.00,VWS V14.01,2013-02-18 04:37:00,
2013-02-17 23:42:00,43.2,29.9,30.38,SE,132,0.0,1.0,59,0.00,,---,0.00,VWS V14.01,2013-02-18 04:42:00,
2013-02-17 23:47:00,42.8,29.9,30.38,SE,131,0.0,1.0,60,0.00,,---,0.00,VWS V14.01,2013-02-18 04:47:00,
2013-02-17 23:52:00,42.2,30.1,30.37,SE,133,0.0,0.0,62,0.00,,---,0.00,VWS V14.01,2013-02-18 04:52:00,
2013-02-17 23:57:00,41.3,30.1,30.38,SE,133,0.0,0.0,64,0.00,,---,0.00,VWS V14.01,2013-02-18 04:57:00,